createdAt,value
2022-10-11T00:00:49.085Z,45.60
2022-10-11T00:05:48.272Z,40.90
2022-10-11T00:10:48.431Z,41.70
2022-10-11T00:15:47.740Z,35.50
2022-10-11T00:20:46.068Z,33.00
2022-10-11T00:25:45.284Z,38.10
2022-10-11T00:30:44.387Z,43.60
2022-10-11T00:35:43.714Z,45.60
2022-10-11T00:40:43.878Z,36.20
2022-10-11T00:45:44.217Z,25.20
2022-10-11T00:50:42.525Z,19.40
2022-10-11T00:55:40.844Z,19.60
2022-10-11T01:00:40.157Z,20.30
2022-10-11T01:05:39.490Z,18.00
2022-10-11T01:10:40.775Z,14.50
2022-10-11T01:15:38.054Z,17.70
2022-10-11T01:20:37.377Z,12.00
2022-10-11T01:25:36.681Z,21.30
2022-10-11T01:30:36.994Z,27.40
2022-10-11T01:35:36.309Z,19.80
2022-10-11T01:40:35.664Z,14.20
2022-10-11T01:45:34.794Z,15.60
2022-10-11T01:50:33.076Z,18.50
2022-10-11T01:55:32.391Z,12.40
2022-10-11T02:00:32.710Z,11.90
2022-10-11T02:05:32.043Z,9.10
2022-10-11T02:10:30.344Z,8.00
2022-10-11T02:15:29.635Z,9.90
2022-10-11T02:20:28.939Z,8.10
2022-10-11T02:25:28.247Z,7.70
2022-10-11T02:30:27.581Z,9.80
2022-10-11T02:35:27.007Z,7.20
2022-10-11T02:40:26.335Z,7.20
2022-10-11T02:45:25.661Z,7.00
2022-10-11T02:50:24.817Z,6.90
2022-10-11T02:55:25.094Z,6.90
2022-10-11T03:00:23.439Z,6.80
2022-10-11T03:05:23.543Z,5.40
2022-10-11T03:10:21.915Z,5.20
2022-10-11T03:15:22.024Z,7.50
2022-10-11T03:20:20.342Z,5.80
2022-10-11T03:25:20.615Z,5.50
2022-10-11T03:30:20.923Z,5.00
2022-10-11T03:35:18.225Z,4.60
2022-10-11T03:40:17.564Z,4.70
2022-10-11T03:45:18.879Z,4.80
2022-10-11T03:50:16.184Z,4.50
2022-10-11T03:55:15.542Z,4.30
2022-10-11T04:00:14.693Z,3.80
2022-10-11T04:05:13.847Z,3.70
2022-10-11T04:10:12.944Z,3.90
2022-10-11T04:15:13.249Z,4.70
2022-10-11T04:20:12.397Z,4.20
2022-10-11T04:25:10.513Z,3.80
2022-10-11T04:30:10.873Z,3.70
2022-10-11T04:35:09.021Z,3.70
2022-10-11T04:40:09.194Z,3.40
2022-10-11T04:45:07.321Z,4.30
2022-10-11T04:50:06.453Z,3.30
2022-10-11T04:55:05.775Z,3.20
2022-10-11T05:00:05.104Z,3.00
2022-10-11T05:05:05.392Z,3.50
2022-10-11T05:10:03.724Z,3.50
2022-10-11T05:15:02.938Z,3.70
2022-10-11T05:20:03.086Z,3.70
2022-10-11T05:25:01.403Z,3.20
2022-10-11T05:30:00.759Z,3.40
2022-10-11T05:34:59.889Z,3.10
2022-10-11T05:39:59.056Z,3.20
2022-10-11T05:44:59.375Z,3.20
2022-10-11T05:49:58.637Z,2.80
2022-10-11T05:54:59.916Z,2.60
2022-10-11T05:59:57.178Z,2.70
2022-10-11T06:04:55.464Z,3.20
2022-10-11T06:09:54.744Z,2.70
2022-10-11T06:14:55.033Z,2.90
2022-10-11T06:19:53.326Z,2.70
2022-10-11T06:24:52.645Z,3.30
2022-10-11T06:29:51.942Z,2.70
2022-10-11T06:34:51.251Z,2.80
2022-10-11T06:39:50.586Z,2.90
2022-10-11T06:44:49.921Z,3.00
2022-10-11T06:49:51.051Z,3.20
2022-10-11T06:54:48.363Z,3.30
2022-10-11T06:59:48.668Z,3.00
2022-10-11T07:04:47.029Z,3.30
2022-10-11T07:09:47.129Z,3.30
2022-10-11T07:14:46.485Z,3.30
2022-10-11T07:19:47.701Z,3.60
2022-10-11T07:24:44.825Z,3.50
2022-10-11T07:29:43.143Z,2.90
2022-10-11T07:34:42.466Z,3.00
2022-10-11T07:39:41.760Z,3.30
2022-10-11T07:44:42.066Z,3.20
2022-10-11T07:49:40.357Z,3.80
2022-10-11T07:54:39.666Z,4.20
2022-10-11T07:59:39.989Z,4.70
2022-10-11T08:04:40.316Z,5.40
2022-10-11T08:09:37.626Z,4.70
2022-10-11T08:14:37.930Z,4.40
2022-10-11T08:19:38.090Z,4.20
2022-10-11T08:24:38.310Z,4.50
2022-10-11T08:29:34.417Z,4.50
2022-10-11T08:34:34.725Z,4.00
2022-10-11T08:39:34.055Z,4.10
2022-10-11T08:44:51.816Z,4.30
2022-10-11T08:49:33.524Z,3.90
2022-10-11T08:54:30.799Z,4.30
2022-10-11T08:59:31.198Z,4.40
2022-10-11T09:04:29.275Z,4.30
2022-10-11T09:09:31.668Z,4.20
2022-10-11T09:14:27.759Z,4.40
2022-10-11T09:19:28.085Z,3.80
2022-10-11T09:24:28.424Z,3.40
2022-10-11T09:29:25.747Z,3.80
2022-10-11T09:34:25.899Z,3.40
2022-10-11T09:39:25.000Z,3.50
2022-10-11T09:44:25.307Z,3.50
2022-10-11T09:49:22.753Z,3.30
2022-10-11T09:54:21.941Z,3.20
2022-10-11T09:59:21.061Z,3.20
2022-10-11T10:04:20.376Z,2.80
2022-10-11T10:09:21.850Z,3.20
2022-10-11T10:14:19.976Z,3.30
2022-10-11T10:19:18.460Z,3.60
2022-10-11T10:24:17.541Z,3.00
2022-10-11T10:29:16.856Z,3.40
2022-10-11T10:34:17.152Z,3.40
2022-10-11T10:39:16.467Z,3.70
2022-10-11T10:44:14.793Z,3.30
2022-10-11T10:49:52.593Z,3.60
2022-10-11T10:54:13.096Z,3.40
2022-10-11T10:59:12.437Z,2.90
2022-10-11T11:04:11.852Z,3.30
2022-10-11T11:09:10.962Z,3.70
2022-10-11T11:14:10.272Z,3.10
2022-10-11T11:19:09.618Z,3.60
2022-10-11T11:24:10.755Z,3.10
2022-10-11T11:29:08.883Z,3.70
2022-10-11T11:34:07.256Z,3.50
2022-10-11T11:39:06.381Z,4.50
2022-10-11T11:44:06.724Z,4.00
2022-10-11T11:49:07.625Z,3.30
2022-10-11T11:54:05.311Z,4.20
2022-10-11T11:59:03.636Z,4.20
2022-10-11T12:04:04.972Z,4.50
2022-10-11T12:09:02.276Z,4.20
2022-10-11T12:14:01.720Z,4.40
2022-10-11T12:19:00.824Z,4.50
2022-10-11T12:24:02.175Z,4.00
2022-10-11T12:29:00.474Z,5.10
2022-10-11T12:33:58.778Z,4.80
2022-10-11T12:38:58.080Z,4.40
2022-10-11T12:43:57.398Z,4.40
2022-10-11T12:48:59.826Z,4.40
2022-10-11T12:54:21.612Z,4.80
2022-10-11T12:58:55.109Z,4.30
2022-10-11T13:03:54.421Z,5.30
2022-10-11T13:08:54.705Z,5.10
2022-10-11T13:13:55.016Z,5.70
2022-10-11T13:18:52.334Z,5.70
2022-10-11T13:23:51.658Z,6.10
2022-10-11T13:28:53.015Z,5.40
2022-10-11T13:33:51.305Z,5.30
2022-10-11T13:38:51.609Z,5.20
2022-10-11T13:43:50.932Z,5.70
2022-10-11T13:48:49.227Z,4.70
2022-10-11T13:53:47.536Z,5.40
2022-10-11T13:58:46.846Z,4.90
2022-10-11T14:03:48.196Z,5.00
2022-10-11T14:08:45.519Z,5.10
2022-10-11T14:13:44.654Z,4.70
2022-10-11T14:18:44.968Z,4.80
2022-10-11T14:23:44.616Z,4.80
2022-10-11T14:28:43.590Z,5.30
2022-10-11T14:33:41.940Z,4.70
2022-10-11T14:38:43.111Z,5.20
2022-10-11T14:43:40.234Z,5.00
2022-10-11T14:48:55.063Z,5.60
2022-10-11T14:53:40.957Z,5.80
2022-10-11T14:58:38.771Z,5.40
2022-10-11T15:03:38.093Z,5.80
2022-10-11T15:08:36.428Z,6.70
2022-10-11T15:13:36.720Z,5.60
2022-10-11T15:18:36.100Z,5.60
2022-10-11T15:23:34.211Z,5.70
2022-10-11T15:28:34.561Z,5.70
2022-10-11T15:33:32.680Z,6.30
2022-10-11T15:38:31.976Z,5.80
2022-10-11T15:43:31.446Z,5.40
2022-10-11T15:48:31.560Z,5.60
2022-10-11T15:53:29.871Z,4.90
2022-10-11T15:58:30.164Z,5.40
2022-10-11T16:03:29.495Z,5.10
2022-10-11T16:08:27.601Z,5.40
2022-10-11T16:14:08.928Z,5.40
2022-10-11T16:18:31.254Z,5.70
2022-10-11T16:23:25.390Z,5.60
2022-10-11T16:28:24.595Z,5.70
2022-10-11T16:33:24.783Z,5.30
2022-10-11T16:38:22.916Z,6.00
2022-10-11T16:43:23.200Z,37.80
2022-10-11T16:48:21.488Z,6.10
2022-10-11T16:53:21.918Z,5.70
2022-10-11T16:58:20.979Z,5.80
2022-10-11T17:03:19.268Z,4.70
2022-10-11T17:08:19.587Z,9.10
2022-10-11T17:13:17.991Z,8.80
2022-10-11T17:18:16.233Z,16.10
2022-10-11T17:23:17.322Z,58.80
2022-10-11T17:28:17.911Z,222.10
2022-10-11T17:33:14.854Z,93.20
2022-10-11T17:38:16.333Z,200.90
2022-10-11T17:43:13.749Z,149.00
2022-10-11T17:48:13.707Z,136.90
2022-10-11T17:53:11.884Z,114.60
2022-10-11T17:58:12.079Z,117.80
2022-10-11T18:03:11.335Z,110.70
2022-10-11T18:08:09.471Z,83.20
2022-10-11T18:13:12.015Z,168.80
2022-10-11T18:18:09.104Z,222.30
2022-10-11T18:23:08.220Z,139.30
2022-10-11T18:28:06.786Z,128.90
2022-10-11T18:33:06.760Z,121.60
2022-10-11T18:38:06.104Z,213.20
2022-10-11T18:43:05.173Z,192.80
2022-10-11T18:48:03.439Z,131.60
2022-10-11T18:58:03.256Z,121.50
2022-10-11T19:03:02.178Z,121.30
2022-10-11T19:08:02.656Z,85.60
2022-10-11T19:13:00.971Z,88.30
2022-10-11T19:18:00.008Z,102.20
2022-10-11T19:22:58.246Z,147.20
2022-10-11T19:27:57.410Z,144.40
2022-10-11T19:32:58.590Z,113.40
2022-10-11T19:37:56.106Z,190.70
2022-10-11T19:42:54.972Z,167.10
2022-10-11T19:47:55.406Z,135.40
2022-10-11T19:52:53.463Z,145.70
2022-10-11T19:57:52.676Z,143.00
2022-10-11T20:02:53.062Z,151.50
2022-10-11T20:07:51.022Z,132.70
2022-10-11T20:12:51.227Z,120.20
2022-10-11T20:17:50.415Z,99.70
2022-10-11T20:22:48.615Z,63.40
2022-10-11T20:27:47.874Z,63.80
2022-10-11T20:32:47.125Z,59.20
2022-10-11T20:37:47.357Z,58.60
2022-10-11T20:42:45.560Z,43.90
2022-10-11T20:47:44.777Z,50.90
2022-10-11T20:52:44.999Z,39.30
2022-10-11T20:57:43.187Z,35.60
2022-10-11T21:02:42.364Z,33.10
2022-10-11T21:07:42.586Z,26.50
2022-10-11T21:12:40.758Z,29.30
2022-10-11T21:17:39.963Z,26.50
2022-10-11T21:22:39.155Z,25.30
2022-10-11T21:27:40.412Z,22.10
2022-10-11T21:32:38.597Z,21.10
2022-10-11T21:37:37.811Z,21.60
2022-10-11T21:42:36.388Z,22.20
2022-10-11T21:47:39.034Z,20.60
2022-10-11T21:52:34.790Z,52.90
2022-10-11T21:57:34.715Z,91.60
2022-10-11T22:02:33.044Z,80.40
2022-10-11T22:07:33.245Z,67.60
2022-10-11T22:12:31.419Z,63.50
2022-10-11T22:17:30.622Z,94.00
2022-10-11T22:22:30.839Z,148.90
2022-10-11T22:27:30.055Z,124.00
2022-10-11T22:32:28.213Z,136.70
2022-10-11T22:37:28.399Z,148.80
2022-10-11T22:42:29.592Z,120.90
2022-10-11T22:47:27.784Z,158.00
2022-10-11T22:52:24.956Z,186.70
2022-10-11T22:57:25.154Z,159.80
2022-10-11T23:02:23.363Z,162.40
2022-10-11T23:07:22.561Z,118.70
2022-10-11T23:12:21.780Z,102.20
2022-10-11T23:17:22.035Z,92.60
2022-10-11T23:22:20.209Z,76.20
2022-10-11T23:27:19.401Z,129.40
2022-10-11T23:32:18.591Z,151.20
2022-10-11T23:37:18.783Z,122.30
2022-10-11T23:42:16.965Z,151.20
2022-10-11T23:47:17.142Z,138.10
2022-10-11T23:52:15.316Z,139.70
2022-10-11T23:57:15.485Z,161.80
